Time,TemperatureF,DewpointF,PressureIn,WindDirection,WindDirectionDegrees,WindSpeedMPH,WindSpeedGustMPH,Humidity,HourlyPrecipIn,Conditions,Clouds,dailyrainin,SoftwareType,DateUTC
2013-01-22 00:02:00,22.0,11.0,30.34,East,95,4.0,7.0,60,-99.99,,,-99.99,,2013-01-22 06:02:00,
2013-01-22 00:12:00,22.0,11.0,30.34,ENE,60,5.0,8.0,60,-99.99,,,-99.99,,2013-01-22 06:12:00,
2013-01-22 00:22:00,22.0,11.0,30.34,ENE,60,5.0,8.0,60,-99.99,,,-99.99,,2013-01-22 06:22:00,
2013-01-22 00:32:00,22.0,10.0,30.33,ENE,75,6.0,9.0,58,-99.99,,,-99.99,,2013-01-22 06:32:00,
2013-01-22 00:42:00,22.0,10.0,30.33,ENE,65,4.0,9.0,59,-99.99,,,-99.99,,2013-01-22 06:42:00,
2013-01-22 00:52:00,22.0,10.0,30.33,NE,55,6.0,9.0,59,-99.99,,,-99.99,,2013-01-22 06:52:00,
2013-01-22 01:02:00,22.0,10.0,30.33,NE,55,6.0,9.0,59,-99.99,,,-99.99,,2013-01-22 07:02:00,
2013-01-22 01:12:00,22.0,10.0,30.33,ENE,75,5.0,10.0,59,-99.99,,,-99.99,,2013-01-22 07:12:00,
2013-01-22 01:22:00,22.0,10.0,30.33,ENE,75,5.0,10.0,59,-99.99,,,-99.99,,2013-01-22 07:22:00,
2013-01-22 01:32:00,22.0,10.0,30.33,East,80,5.0,8.0,60,-99.99,,,-99.99,,2013-01-22 07:32:00,
2013-01-22 01:42:00,22.0,10.0,30.33,ENE,70,4.0,7.0,61,-99.99,,,-99.99,,2013-01-22 07:42:00,
2013-01-22 01:52:00,22.0,10.0,30.33,ENE,70,4.0,7.0,61,-99.99,,,-99.99,,2013-01-22 07:52:00,
2013-01-22 02:02:00,21.0,10.0,30.32,East,80,5.0,6.0,62,-99.99,,,-99.99,,2013-01-22 08:02:00,
2013-01-22 02:12:00,21.0,10.0,30.32,East,80,4.0,7.0,62,-99.99,,,-99.99,,2013-01-22 08:12:00,
2013-01-22 02:22:00,21.0,10.0,30.32,East,80,4.0,7.0,62,-99.99,,,-99.99,,2013-01-22 08:22:00,
2013-01-22 02:32:00,21.0,11.0,30.31,ESE,115,3.0,5.0,64,-99.99,,,-99.99,,2013-01-22 08:32:00,
2013-01-22 02:42:00,21.0,11.0,30.31,East,95,4.0,6.0,64,-99.99,,,-99.99,,2013-01-22 08:42:00,
2013-01-22 02:52:00,21.0,11.0,30.31,East,95,4.0,6.0,64,-99.99,,,-99.99,,2013-01-22 08:52:00,
2013-01-22 03:02:00,22.0,11.0,30.31,ESE,110,4.0,8.0,64,-99.99,,,-99.99,,2013-01-22 09:02:00,
2013-01-22 03:12:00,22.0,11.0,30.31,ESE,120,6.0,9.0,63,-99.99,,,-99.99,,2013-01-22 09:12:00,
2013-01-22 03:22:00,22.0,11.0,30.31,ESE,120,6.0,9.0,63,-99.99,,,-99.99,,2013-01-22 09:22:00,
2013-01-22 03:32:00,22.0,12.0,30.31,SE,125,3.0,8.0,63,-99.99,,,-99.99,,2013-01-22 09:32:00,
2013-01-22 03:42:00,23.0,12.0,30.31,East,100,6.0,8.0,62,-99.99,,,-99.99,,2013-01-22 09:42:00,
2013-01-22 03:52:00,23.0,12.0,30.31,East,100,6.0,8.0,62,-99.99,,,-99.99,,2013-01-22 09:52:00,
2013-01-22 04:02:00,23.0,11.0,30.32,NE,55,5.0,8.0,60,-99.99,,,-99.99,,2013-01-22 10:02:00,
2013-01-22 04:12:00,23.0,12.0,30.31,East,95,7.0,8.0,61,-99.99,,,-99.99,,2013-01-22 10:12:00,
2013-01-22 04:22:00,23.0,12.0,30.31,East,95,7.0,8.0,61,-99.99,,,-99.99,,2013-01-22 10:22:00,
2013-01-22 04:32:00,23.0,12.0,30.30,ESE,110,6.0,10.0,62,-99.99,,,-99.99,,2013-01-22 10:32:00,
2013-01-22 04:42:00,22.0,12.0,30.30,ESE,110,4.0,7.0,63,-99.99,,,-99.99,,2013-01-22 10:42:00,
2013-01-22 04:52:00,22.0,12.0,30.30,ESE,110,4.0,7.0,63,-99.99,,,-99.99,,2013-01-22 10:52:00,
2013-01-22 05:02:00,22.0,12.0,30.29,ESE,105,2.0,6.0,63,-99.99,,,-99.99,,2013-01-22 11:02:00,
2013-01-22 05:12:00,23.0,12.0,30.30,East,95,5.0,6.0,62,-99.99,,,-99.99,,2013-01-22 11:12:00,
2013-01-22 05:22:00,23.0,12.0,30.30,East,95,5.0,6.0,62,-99.99,,,-99.99,,2013-01-22 11:22:00,
2013-01-22 05:33:00,24.0,12.0,30.30,ESE,110,4.0,6.0,61,-99.99,,,-99.99,,2013-01-22 11:33:00,
2013-01-22 05:43:00,23.0,12.0,30.30,ESE,120,4.0,7.0,61,-99.99,,,-99.99,,2013-01-22 11:43:00,
2013-01-22 05:53:00,23.0,12.0,30.30,ESE,120,4.0,7.0,61,-99.99,,,-99.99,,2013-01-22 11:53:00,
2013-01-22 06:03:00,22.0,12.0,30.30,NE,40,5.0,6.0,63,-99.99,,,-99.99,,2013-01-22 12:03:00,
2013-01-22 06:12:00,22.0,12.0,30.31,NE,55,4.0,6.0,65,-99.99,,,-99.99,,2013-01-22 12:12:00,
2013-01-22 06:23:00,22.0,12.0,30.31,NE,55,4.0,6.0,65,-99.99,,,-99.99,,2013-01-22 12:23:00,
2013-01-22 06:33:00,22.0,12.0,30.31,ENE,65,4.0,5.0,67,-99.99,,,-99.99,,2013-01-22 12:33:00,
2013-01-22 06:43:00,21.0,12.0,30.30,ENE,60,4.0,6.0,68,-99.99,,,-99.99,,2013-01-22 12:43:00,
2013-01-22 06:52:00,21.0,12.0,30.30,ENE,60,4.0,6.0,68,-99.99,,,-99.99,,2013-01-22 12:52:00,
2013-01-22 07:04:00,22.0,13.0,30.30,East,95,3.0,8.0,68,-99.99,,,-99.99,,2013-01-22 13:04:00,
2013-01-22 07:13:00,22.0,13.0,30.30,ESE,110,5.0,7.0,69,-99.99,,,-99.99,,2013-01-22 13:13:00,
2013-01-22 07:23:00,22.0,13.0,30.30,ESE,110,5.0,7.0,69,-99.99,,,-99.99,,2013-01-22 13:23:00,
2013-01-22 07:33:00,21.0,12.0,30.31,ENE,75,4.0,7.0,68,-99.99,,,-99.99,,2013-01-22 13:33:00,
2013-01-22 07:43:00,22.0,13.0,30.31,East,80,5.0,7.0,69,-99.99,,,-99.99,,2013-01-22 13:43:00,
2013-01-22 07:53:00,21.0,12.0,30.32,NE,40,3.0,8.0,68,-99.99,,,-99.99,,2013-01-22 13:53:00,
2013-01-22 08:03:00,21.0,12.0,30.32,NE,40,3.0,8.0,68,-99.99,,,-99.99,,2013-01-22 14:03:00,
2013-01-22 08:13:00,21.0,12.0,30.32,ENE,60,4.0,6.0,68,-99.99,,,-99.99,,2013-01-22 14:13:00,
2013-01-22 08:23:00,21.0,12.0,30.32,ENE,60,4.0,6.0,68,-99.99,,,-99.99,,2013-01-22 14:23:00,
2013-01-22 08:34:00,22.0,13.0,30.32,NE,55,3.0,8.0,68,-99.99,,,-99.99,,2013-01-22 14:34:00,
2013-01-22 08:44:00,22.0,13.0,30.33,East,85,3.0,7.0,67,-99.99,,,-99.99,,2013-01-22 14:44:00,
2013-01-22 08:53:00,22.0,13.0,30.33,East,85,3.0,7.0,67,-99.99,,,-99.99,,2013-01-22 14:53:00,
2013-01-22 09:03:00,23.0,13.0,30.31,East,95,8.0,11.0,66,-99.99,,,-99.99,,2013-01-22 15:03:00,
2013-01-22 09:13:00,23.0,13.0,30.31,ESE,120,7.0,12.0,66,-99.99,,,-99.99,,2013-01-22 15:13:00,
2013-01-22 09:23:00,23.0,13.0,30.31,ESE,120,7.0,12.0,66,-99.99,,,-99.99,,2013-01-22 15:23:00,
2013-01-22 09:34:00,24.0,15.0,30.30,ESE,120,5.0,10.0,66,-99.99,,,-99.99,,2013-01-22 15:34:00,
2013-01-22 09:43:00,25.0,14.0,30.30,SE,125,5.0,8.0,63,-99.99,,,-99.99,,2013-01-22 15:43:00,
2013-01-22 09:52:00,25.0,14.0,30.30,SE,125,5.0,8.0,63,-99.99,,,-99.99,,2013-01-22 15:52:00,
2013-01-22 10:03:00,27.0,15.0,30.28,SSE,165,10.0,16.0,61,-99.99,,,-99.99,,2013-01-22 16:03:00,
2013-01-22 10:13:00,29.0,17.0,30.29,SSE,150,4.0,12.0,62,-99.99,,,-99.99,,2013-01-22 16:13:00,
2013-01-22 10:23:00,29.0,17.0,30.29,SSE,150,4.0,12.0,62,-99.99,,,-99.99,,2013-01-22 16:23:00,
2013-01-22 10:33:00,29.0,16.0,30.30,ESE,115,5.0,9.0,57,-99.99,,,-99.99,,2013-01-22 16:33:00,
2013-01-22 10:43:00,30.0,16.0,30.30,SE,130,4.0,10.0,57,-99.99,,,-99.99,,2013-01-22 16:43:00,
2013-01-22 10:53:00,30.0,16.0,30.30,SE,130,4.0,10.0,57,-99.99,,,-99.99,,2013-01-22 16:53:00,
2013-01-22 11:03:00,31.0,18.0,30.32,ESE,115,3.0,8.0,57,-99.99,,,-99.99,,2013-01-22 17:03:00,
2013-01-22 11:13:00,31.0,16.0,30.33,ENE,75,6.0,8.0,54,-99.99,,,-99.99,,2013-01-22 17:13:00,
2013-01-22 11:23:00,31.0,16.0,30.33,ENE,75,6.0,8.0,54,-99.99,,,-99.99,,2013-01-22 17:23:00,
2013-01-22 11:34:00,31.0,17.0,30.34,NE,55,5.0,9.0,54,-99.99,,,-99.99,,2013-01-22 17:34:00,
2013-01-22 11:43:00,31.0,17.0,30.35,ENE,65,6.0,10.0,55,-99.99,,,-99.99,,2013-01-22 17:43:00,
2013-01-22 11:53:00,31.0,17.0,30.35,ENE,65,6.0,10.0,55,-99.99,,,-99.99,,2013-01-22 17:53:00,
2013-01-22 12:00:00,33.0,18.0,30.33,SE,130,4.0,8.0,54,-99.99,,,-99.99,,2013-01-22 18:00:00,
2013-01-22 12:03:00,32.0,17.0,30.34,NE,50,4.0,9.0,54,-99.99,,,-99.99,,2013-01-22 18:03:00,
2013-01-22 12:13:00,32.0,17.0,30.34,East,80,5.0,9.0,53,-99.99,,,-99.99,,2013-01-22 18:13:00,
2013-01-22 12:23:00,32.0,17.0,30.34,East,80,5.0,9.0,53,-99.99,,,-99.99,,2013-01-22 18:23:00,
2013-01-22 12:33:00,33.0,17.0,30.33,ESE,115,5.0,8.0,53,-99.99,,,-99.99,,2013-01-22 18:33:00,
2013-01-22 12:43:00,33.0,18.0,30.33,SE,130,4.0,8.0,54,-99.99,,,-99.99,,2013-01-22 18:43:00,
2013-01-22 12:53:00,33.0,18.0,30.33,SE,130,4.0,8.0,54,-99.99,,,-99.99,,2013-01-22 18:53:00,
2013-01-22 13:13:00,34.0,19.0,30.30,South,185,5.0,7.0,53,-99.99,,,-99.99,,2013-01-22 19:13:00,
2013-01-22 13:23:00,34.0,19.0,30.30,South,185,5.0,7.0,53,-99.99,,,-99.99,,2013-01-22 19:23:00,
2013-01-22 13:33:00,35.0,19.0,30.30,South,185,3.0,7.0,51,-99.99,,,-99.99,,2013-01-22 19:33:00,
2013-01-22 13:43:00,35.0,18.0,30.29,SE,125,3.0,7.0,50,-99.99,,,-99.99,,2013-01-22 19:43:00,
2013-01-22 13:53:00,35.0,18.0,30.29,SE,125,3.0,7.0,50,-99.99,,,-99.99,,2013-01-22 19:53:00,
2013-01-22 14:03:00,36.0,19.0,30.28,ESE,115,3.0,6.0,49,-99.99,,,-99.99,,2013-01-22 20:03:00,
2013-01-22 14:13:00,36.0,20.0,30.28,NW,325,1.0,6.0,50,-99.99,,,-99.99,,2013-01-22 20:13:00,
2013-01-22 14:23:00,36.0,20.0,30.28,NW,325,1.0,6.0,50,-99.99,,,-99.99,,2013-01-22 20:23:00,
2013-01-22 14:33:00,37.0,19.0,30.27,SSW,210,2.0,5.0,48,-99.99,,,-99.99,,2013-01-22 20:33:00,
2013-01-22 14:43:00,38.0,20.0,30.27,SW,235,3.0,9.0,48,-99.99,,,-99.99,,2013-01-22 20:43:00,
2013-01-22 14:53:00,38.0,20.0,30.27,SW,235,3.0,9.0,48,-99.99,,,-99.99,,2013-01-22 20:53:00,
2013-01-22 15:03:00,38.0,21.0,30.26,South,180,4.0,7.0,48,-99.99,,,-99.99,,2013-01-22 21:03:00,
2013-01-22 15:13:00,39.0,21.0,30.26,ESE,110,4.0,8.0,48,-99.99,,,-99.99,,2013-01-22 21:13:00,
2013-01-22 15:23:00,39.0,21.0,30.26,ESE,110,4.0,8.0,48,-99.99,,,-99.99,,2013-01-22 21:23:00,
2013-01-22 15:33:00,40.0,21.0,30.26,South,180,2.0,7.0,47,-99.99,,,-99.99,,2013-01-22 21:33:00,
2013-01-22 15:43:00,40.0,21.0,30.26,South,175,5.0,10.0,47,-99.99,,,-99.99,,2013-01-22 21:43:00,
2013-01-22 15:53:00,40.0,21.0,30.26,South,175,5.0,10.0,47,-99.99,,,-99.99,,2013-01-22 21:53:00,
2013-01-22 16:03:00,40.0,21.0,30.25,South,170,2.0,9.0,46,-99.99,,,-99.99,,2013-01-22 22:03:00,
2013-01-22 16:13:00,41.0,22.0,30.24,South,170,5.0,9.0,46,-99.99,,,-99.99,,2013-01-22 22:13:00,
2013-01-22 16:22:00,41.0,22.0,30.24,South,170,5.0,9.0,46,-99.99,,,-99.99,,2013-01-22 22:22:00,
2013-01-22 16:32:00,41.0,22.0,30.24,South,190,5.0,11.0,46,-99.99,,,-99.99,,2013-01-22 22:32:00,
2013-01-22 16:43:00,41.0,22.0,30.23,South,180,5.0,9.0,46,-99.99,,,-99.99,,2013-01-22 22:43:00,
2013-01-22 16:53:00,41.0,22.0,30.23,South,180,5.0,9.0,46,-99.99,,,-99.99,,2013-01-22 22:53:00,
2013-01-22 17:03:00,42.0,23.0,30.22,South,180,5.0,7.0,46,-99.99,,,-99.99,,2013-01-22 23:03:00,
2013-01-22 17:12:00,42.0,23.0,30.23,South,185,4.0,7.0,47,-99.99,,,-99.99,,2013-01-22 23:12:00,
2013-01-22 17:24:00,42.0,23.0,30.23,South,185,4.0,7.0,47,-99.99,,,-99.99,,2013-01-22 23:24:00,
2013-01-22 17:33:00,42.0,22.0,30.23,South,180,3.0,5.0,46,-99.99,,,-99.99,,2013-01-22 23:33:00,
2013-01-22 17:43:00,41.0,23.0,30.22,ESE,120,3.0,7.0,48,-99.99,,,-99.99,,2013-01-22 23:43:00,
2013-01-22 17:52:00,41.0,23.0,30.22,ESE,120,3.0,7.0,48,-99.99,,,-99.99,,2013-01-22 23:52:00,
2013-01-22 18:03:00,40.0,22.0,30.23,SSE,150,2.0,3.0,48,-99.99,,,-99.99,,2013-01-23 00:03:00,
2013-01-22 18:12:00,40.0,22.0,30.23,ESE,120,1.0,4.0,48,-99.99,,,-99.99,,2013-01-23 00:12:00,
2013-01-22 18:23:00,40.0,22.0,30.23,ESE,120,1.0,4.0,48,-99.99,,,-99.99,,2013-01-23 00:23:00,
2013-01-22 18:33:00,40.0,22.0,30.23,East,85,2.0,4.0,50,-99.99,,,-99.99,,2013-01-23 00:33:00,
2013-01-22 18:43:00,39.0,22.0,30.23,ENE,75,2.0,4.0,51,-99.99,,,-99.99,,2013-01-23 00:43:00,
2013-01-22 18:52:00,39.0,22.0,30.23,ENE,75,2.0,4.0,51,-99.99,,,-99.99,,2013-01-23 00:52:00,
2013-01-22 19:03:00,36.0,21.0,30.24,ENE,65,3.0,6.0,56,-99.99,,,-99.99,,2013-01-23 01:03:00,
2013-01-22 19:13:00,35.0,21.0,30.24,NE,55,2.0,4.0,56,-99.99,,,-99.99,,2013-01-23 01:13:00,
2013-01-22 19:23:00,35.0,21.0,30.24,NE,55,2.0,4.0,56,-99.99,,,-99.99,,2013-01-23 01:23:00,
2013-01-22 19:33:00,35.0,22.0,30.24,SSE,150,1.0,6.0,58,-99.99,,,-99.99,,2013-01-23 01:33:00,
2013-01-22 19:43:00,35.0,22.0,30.24,ESE,105,3.0,5.0,57,-99.99,,,-99.99,,2013-01-23 01:43:00,
2013-01-22 19:52:00,35.0,22.0,30.24,ESE,105,3.0,5.0,57,-99.99,,,-99.99,,2013-01-23 01:52:00,
2013-01-22 20:03:00,34.0,22.0,30.23,ESE,115,3.0,6.0,60,-99.99,,,-99.99,,2013-01-23 02:03:00,
2013-01-22 20:12:00,34.0,21.0,30.24,ESE,120,5.0,7.0,58,-99.99,,,-99.99,,2013-01-23 02:12:00,
2013-01-22 20:23:00,34.0,21.0,30.24,ESE,120,5.0,7.0,58,-99.99,,,-99.99,,2013-01-23 02:23:00,
2013-01-22 20:33:00,32.0,20.0,30.23,SE,125,4.0,6.0,61,-99.99,,,-99.99,,2013-01-23 02:33:00,
2013-01-22 20:43:00,31.0,20.0,30.23,SSE,165,2.0,4.0,64,-99.99,,,-99.99,,2013-01-23 02:43:00,
2013-01-22 20:53:00,31.0,20.0,30.23,SSE,165,2.0,4.0,64,-99.99,,,-99.99,,2013-01-23 02:53:00,
2013-01-22 21:03:00,32.0,20.0,30.23,ESE,115,3.0,7.0,62,-99.99,,,-99.99,,2013-01-23 03:03:00,
2013-01-22 21:13:00,32.0,20.0,30.23,ESE,110,2.0,6.0,61,-99.99,,,-99.99,,2013-01-23 03:13:00,
2013-01-22 21:23:00,32.0,20.0,30.23,ESE,110,2.0,6.0,61,-99.99,,,-99.99,,2013-01-23 03:23:00,
2013-01-22 21:33:00,31.0,19.0,30.23,ESE,115,3.0,5.0,61,-99.99,,,-99.99,,2013-01-23 03:33:00,
2013-01-22 21:42:00,31.0,19.0,30.23,South,180,1.0,6.0,61,-99.99,,,-99.99,,2013-01-23 03:42:00,
2013-01-22 21:53:00,31.0,19.0,30.23,South,180,1.0,6.0,61,-99.99,,,-99.99,,2013-01-23 03:53:00,
2013-01-22 22:03:00,30.0,18.0,30.23,SE,135,2.0,5.0,61,-99.99,,,-99.99,,2013-01-23 04:03:00,
2013-01-22 22:12:00,30.0,19.0,30.23,East,85,1.0,2.0,62,-99.99,,,-99.99,,2013-01-23 04:12:00,
2013-01-22 22:23:00,30.0,19.0,30.23,East,85,1.0,2.0,62,-99.99,,,-99.99,,2013-01-23 04:23:00,
2013-01-22 22:33:00,30.0,18.0,30.24,South,180,2.0,5.0,60,-99.99,,,-99.99,,2013-01-23 04:33:00,
2013-01-22 22:43:00,31.0,19.0,30.24,East,80,1.0,3.0,61,-99.99,,,-99.99,,2013-01-23 04:43:00,
2013-01-22 22:52:00,31.0,19.0,30.24,East,80,1.0,3.0,61,-99.99,,,-99.99,,2013-01-23 04:52:00,
2013-01-22 23:03:00,30.0,19.0,30.25,East,100,1.0,5.0,62,-99.99,,,-99.99,,2013-01-23 05:03:00,
2013-01-22 23:12:00,30.0,19.0,30.25,South,170,1.0,3.0,62,-99.99,,,-99.99,,2013-01-23 05:12:00,
2013-01-22 23:22:00,30.0,19.0,30.25,South,170,1.0,3.0,62,-99.99,,,-99.99,,2013-01-23 05:22:00,
2013-01-22 23:33:00,27.0,17.0,30.25,SSW,195,2.0,3.0,65,-99.99,,,-99.99,,2013-01-23 05:33:00,
2013-01-22 23:43:00,26.0,18.0,30.25,South,190,1.0,2.0,70,-99.99,,,-99.99,,2013-01-23 05:43:00,
2013-01-22 23:52:00,26.0,18.0,30.25,South,190,1.0,2.0,70,-99.99,,,-99.99,,2013-01-23 05:52:00,